Bookmark and Share
Track history (hours):
 

Kardemir

Last reported at 2014-Apr-20 02:28 UTC. Time now 2014-Apr-20 08:55 UTC.
Position N 53°31' W 003°27'.

Length 106 m; draft 5 m.

Type: Ship. MMSI: 248363000.

NotesDate/timePositionNaut miles runAvg speedWind from/ knotsBaromVisibWave heightAir tempDewpointWater temp
2014-Apr-20 02:28N 53°31' W 003°27'177 9.3
2014-Apr-19 07:29N 50°58' W 005°52'2611.3
2014-Apr-19 05:09N 50°31' W 005°52'711.5
2014-Apr-19 04:32N 50°24' W 005°52'184 6.3
2014-Apr-17 23:16N 47°23' W 005°13'27 9.9
2014-Apr-17 20:32N 46°57' W 004°59'19 9.8
2014-Apr-17 18:33N 46°39' W 004°49'1210.0
2014-Apr-17 17:23N 46°28' W 004°43'810.2
2014-Apr-17 16:33N 46°20' W 004°39'7710.9
2014-Apr-17 09:30N 45°08' W 004°00'90 2.5
2014-Apr-15 21:08N 43°45' W 004°51'16 9.0
2014-Apr-15 19:23N 43°47' W 005°12'7 9.0
2014-Apr-15 18:34N 43°48' W 005°22'10 8.6
2014-Apr-15 17:21N 43°49' W 005°37'7 8.5
2014-Apr-15 16:33N 43°49' W 005°46'10 8.6
2014-Apr-15 15:22N 43°50' W 006°00'346 7.5
2014-Apr-13 17:33N 38°54' W 009°57'11 9.8
2014-Apr-13 16:24N 38°43' W 009°57'1210.0
2014-Apr-13 15:12N 38°31' W 009°53'710.2
2014-Apr-13 14:30N 38°24' W 009°51'1110.2
2014-Apr-13 13:27N 38°14' W 009°48'910.3
2014-Apr-13 12:33N 38°05' W 009°46'1010.3
2014-Apr-13 11:33N 37°54' W 009°43'1010.1
2014-Apr-13 10:33N 37°45' W 009°40'10 9.8
2014-Apr-13 09:33N 37°35' W 009°37'10 9.7
2014-Apr-13 08:32N 37°26' W 009°35'11 9.8
2014-Apr-13 07:28N 37°15' W 009°31'19 9.6
2014-Apr-13 05:32N 36°57' W 009°26'30 8.9
2014-Apr-13 02:08N 36°38' W 008°57'610.2
2014-Apr-13 01:33N 36°40' W 008°50'1010.2
2014-Apr-13 00:33N 36°41' W 008°37'1010.3
2014-Apr-12 23:33N 36°43' W 008°24'1010.1
2014-Apr-12 22:33N 36°45' W 008°12'9 9.5
2014-Apr-12 21:33N 36°46' W 008°00'9 9.2
2014-Apr-12 20:33N 36°48' W 007°49'  

Dump ship's entire track history

sailing weather and tide predictions

Kardemir — 9HA2333 — position and weather